createdAt,value
2019-02-12T00:01:52.275Z,99437.95
2019-02-12T00:04:22.596Z,99439.10
2019-02-12T00:06:52.814Z,99440.88
2019-02-12T00:09:23.014Z,99438.73
2019-02-12T00:11:53.236Z,99441.45
2019-02-12T00:14:23.520Z,99459.84
2019-02-12T00:16:53.746Z,99447.47
2019-02-12T00:19:24.078Z,99440.98
2019-02-12T00:21:54.256Z,99453.63
2019-02-12T00:24:24.679Z,99455.41
2019-02-12T00:26:54.926Z,99468.63
2019-02-12T00:29:25.153Z,99468.29
2019-02-12T00:31:55.343Z,99467.21
2019-02-12T00:34:25.575Z,99473.30
2019-02-12T00:36:55.845Z,99478.45
2019-02-12T00:39:26.100Z,99487.19
2019-02-12T00:41:56.320Z,99482.98
2019-02-12T00:44:26.513Z,99484.23
2019-02-12T00:46:56.761Z,99490.58
2019-02-12T00:49:27.036Z,99496.97
2019-02-12T00:51:57.255Z,99483.59
2019-02-12T00:54:27.516Z,99490.05
2019-02-12T00:56:57.703Z,99496.84
2019-02-12T00:59:27.979Z,99498.68
2019-02-12T01:01:59.562Z,99505.44
2019-02-12T01:04:29.794Z,99507.55
2019-02-12T01:07:00.030Z,99510.25
2019-02-12T01:09:30.606Z,99507.19
2019-02-12T01:12:00.826Z,99498.03
2019-02-12T01:14:31.028Z,99500.05
2019-02-12T01:17:01.214Z,99504.86
2019-02-12T01:19:31.449Z,99503.32
2019-02-12T01:22:01.704Z,99498.03
2019-02-12T01:24:32.001Z,99501.80
2019-02-12T01:27:02.397Z,99502.89
2019-02-12T01:29:32.621Z,99506.08
2019-02-12T01:32:02.899Z,99495.66
2019-02-12T01:34:33.164Z,99500.91
2019-02-12T01:37:03.386Z,99492.47
2019-02-12T01:39:33.743Z,99506.16
2019-02-12T01:42:03.937Z,99498.14
2019-02-12T01:44:34.409Z,99507.19
2019-02-12T01:47:04.625Z,99507.77
2019-02-12T01:49:34.848Z,99504.27
2019-02-12T01:52:05.087Z,99502.86
2019-02-12T01:54:35.338Z,99497.34
2019-02-12T01:57:05.552Z,99506.09
2019-02-12T01:59:35.766Z,99500.74
2019-02-12T02:02:06.511Z,99505.19
2019-02-12T02:04:36.798Z,99502.69
2019-02-12T02:07:07.056Z,99499.40
2019-02-12T02:09:37.376Z,99494.86
2019-02-12T02:12:07.612Z,99505.39
2019-02-12T02:14:37.861Z,99505.11
2019-02-12T02:17:08.096Z,99516.45
2019-02-12T02:19:38.285Z,99521.70
2019-02-12T02:22:08.545Z,99515.95
2019-02-12T02:24:38.758Z,99517.92
2019-02-12T02:27:08.921Z,99517.77
2019-02-12T02:29:39.169Z,99523.84
2019-02-12T02:32:09.421Z,99538.91
2019-02-12T02:34:39.653Z,99537.37
2019-02-12T02:37:09.878Z,99537.51
2019-02-12T02:39:40.115Z,99534.52
2019-02-12T02:42:10.374Z,99551.94
2019-02-12T02:44:40.638Z,99538.02
2019-02-12T02:47:10.821Z,99541.44
2019-02-12T02:49:41.047Z,99536.70
2019-02-12T02:52:11.273Z,99541.44
2019-02-12T02:54:41.552Z,99541.81
2019-02-12T02:57:11.965Z,99542.55
2019-02-12T02:59:42.173Z,99544.37
2019-02-12T03:02:12.715Z,99541.24
2019-02-12T03:04:42.943Z,99544.55
2019-02-12T03:07:13.306Z,99540.20
2019-02-12T03:09:43.499Z,99545.84
2019-02-12T03:12:13.908Z,99557.30
2019-02-12T03:14:44.079Z,99549.31
2019-02-12T03:17:14.276Z,99568.48
2019-02-12T03:19:44.520Z,99567.67
2019-02-12T03:22:14.794Z,99570.09
2019-02-12T03:24:44.993Z,99569.22
2019-02-12T03:27:15.400Z,99574.25
2019-02-12T03:29:45.623Z,99576.52
2019-02-12T03:32:15.814Z,99576.88
2019-02-12T03:34:46.124Z,99585.55
2019-02-12T03:37:16.383Z,99582.22
2019-02-12T03:39:46.590Z,99580.17
2019-02-12T03:42:17.001Z,99585.66
2019-02-12T03:44:47.318Z,99598.19
2019-02-12T03:47:17.562Z,99599.84
2019-02-12T03:49:47.797Z,99589.75
2019-02-12T03:52:18.030Z,99593.53
2019-02-12T03:54:49.279Z,99594.77
2019-02-12T03:57:19.552Z,99583.85
2019-02-12T03:59:49.787Z,99592.80
2019-02-12T04:02:20.261Z,99586.59
2019-02-12T04:04:50.872Z,99587.41
2019-02-12T04:07:21.081Z,99584.86
2019-02-12T04:09:51.374Z,99591.41
2019-02-12T04:12:21.566Z,99591.83
2019-02-12T04:14:52.108Z,99598.70
2019-02-12T04:17:22.327Z,99600.73
2019-02-12T04:19:52.595Z,99605.09
2019-02-12T04:22:23.331Z,99613.42
2019-02-12T04:24:53.619Z,99617.63
2019-02-12T04:27:23.834Z,99629.08
2019-02-12T04:29:54.123Z,99634.83
2019-02-12T04:32:24.311Z,99633.09
2019-02-12T04:34:54.558Z,99638.98
2019-02-12T04:37:24.802Z,99636.36
2019-02-12T04:39:55.167Z,99642.03
2019-02-12T04:42:25.478Z,99644.66
2019-02-12T04:44:55.664Z,99653.34
2019-02-12T04:47:25.977Z,99653.98
2019-02-12T04:49:56.135Z,99652.75
2019-02-12T04:52:31.895Z,99644.51
2019-02-12T04:54:58.514Z,99650.56
2019-02-12T04:57:28.732Z,99646.84
2019-02-12T04:59:58.969Z,99635.56
2019-02-12T05:02:29.438Z,99629.66
2019-02-12T05:04:59.742Z,99628.50
2019-02-12T05:07:30.019Z,99631.97
2019-02-12T05:10:00.349Z,99634.40
2019-02-12T05:12:30.710Z,99631.24
2019-02-12T05:15:01.185Z,99633.02
2019-02-12T05:17:31.545Z,99626.30
2019-02-12T05:20:01.741Z,99625.50
2019-02-12T05:22:42.896Z,99636.95
2019-02-12T05:25:03.955Z,99631.23
2019-02-12T05:27:34.339Z,99638.98
2019-02-12T05:30:04.950Z,99650.33
2019-02-12T05:32:35.421Z,99647.20
2019-02-12T05:35:05.969Z,99643.85
2019-02-12T05:37:36.354Z,99647.94
2019-02-12T05:40:07.436Z,99639.64
2019-02-12T05:42:37.705Z,99641.53
2019-02-12T05:45:08.867Z,99643.58
2019-02-12T05:47:39.296Z,99646.05
2019-02-12T05:50:11.455Z,99646.47
2019-02-12T05:52:42.415Z,99645.01
2019-02-12T05:55:12.741Z,99639.02
2019-02-12T05:57:43.356Z,99646.19
2019-02-12T06:00:16.482Z,99655.95
2019-02-12T06:02:47.056Z,99661.70
2019-02-12T06:05:27.435Z,99660.55
2019-02-12T06:07:57.823Z,99659.44
2019-02-12T06:10:28.085Z,99667.45
2019-02-12T06:12:58.379Z,99660.81
2019-02-12T06:15:28.588Z,99664.55
2019-02-12T06:18:01.146Z,99686.89
2019-02-12T06:20:31.500Z,99684.58
2019-02-12T06:23:03.799Z,99687.28
2019-02-12T06:25:33.745Z,99692.80
2019-02-12T06:28:04.060Z,99703.24
2019-02-12T06:30:34.451Z,99713.35
2019-02-12T06:33:10.990Z,99712.43
2019-02-12T06:35:41.371Z,99711.04
2019-02-12T06:38:12.058Z,99712.63
2019-02-12T06:40:43.942Z,99715.33
2019-02-12T06:43:16.687Z,99712.55
2019-02-12T06:45:47.068Z,99720.57
2019-02-12T06:48:17.366Z,99725.89
2019-02-12T06:50:58.504Z,99724.59
2019-02-12T06:53:30.016Z,99728.44
2019-02-12T06:56:00.332Z,99724.66
2019-02-12T06:58:31.167Z,99733.92
2019-02-12T07:01:04.804Z,99738.27
2019-02-12T07:03:58.944Z,99745.20
2019-02-12T07:06:51.200Z,99754.45
2019-02-12T07:09:35.525Z,99756.71
2019-02-12T07:12:46.092Z,99754.59
2019-02-12T07:15:38.494Z,99752.14
2019-02-12T07:18:54.590Z,99755.99
2019-02-12T07:21:52.002Z,99775.45
2019-02-12T07:25:16.155Z,99784.36
2019-02-12T07:28:30.663Z,99788.57
2019-02-12T07:31:55.220Z,99794.86
2019-02-12T07:34:52.276Z,99794.13
2019-02-12T07:38:13.782Z,99801.58
2019-02-12T07:41:20.711Z,99802.35
2019-02-12T07:44:39.673Z,99814.78
2019-02-12T07:47:27.179Z,99814.82
2019-02-12T07:50:39.693Z,99808.86
2019-02-12T07:53:49.826Z,99823.06
2019-02-12T07:57:31.139Z,99830.70
2019-02-12T08:00:26.641Z,99819.28
2019-02-12T08:03:22.990Z,99835.05
2019-02-12T08:06:10.368Z,99841.37
2019-02-12T08:09:16.214Z,99842.38
2019-02-12T08:12:05.188Z,99851.58
2019-02-12T08:15:28.253Z,99856.75
2019-02-12T08:18:42.782Z,99861.03
2019-02-12T08:21:54.128Z,99854.77
2019-02-12T08:25:01.676Z,99854.09
2019-02-12T08:28:00.311Z,99865.06
2019-02-12T08:30:39.917Z,99865.57
2019-02-12T08:33:51.703Z,99868.62
2019-02-12T08:37:00.356Z,99865.33
2019-02-12T08:40:04.068Z,99870.84
2019-02-12T08:43:01.629Z,99873.91
2019-02-12T08:46:14.554Z,99872.81
2019-02-12T08:49:38.259Z,99873.05
2019-02-12T08:52:41.859Z,99871.16
2019-02-12T08:55:53.027Z,99870.50
2019-02-12T08:58:37.989Z,99870.85
2019-02-12T09:01:38.631Z,99858.45
2019-02-12T09:04:37.815Z,99856.78
2019-02-12T09:07:26.639Z,99867.94
2019-02-12T09:10:24.339Z,99871.22
2019-02-12T09:13:30.877Z,99873.31
2019-02-12T09:16:44.962Z,99885.14
2019-02-12T09:19:38.288Z,99879.23
2019-02-12T09:22:36.520Z,99892.09
2019-02-12T09:25:47.168Z,99884.14
2019-02-12T09:28:59.929Z,99884.56
2019-02-12T09:32:26.329Z,99894.72
2019-02-12T09:35:17.731Z,99899.23
2019-02-12T09:38:13.168Z,99920.61
2019-02-12T09:41:22.929Z,99909.67
2019-02-12T09:44:17.338Z,99922.73
2019-02-12T09:47:17.528Z,99932.08
2019-02-12T09:50:46.597Z,99919.84
2019-02-12T09:54:08.581Z,99929.59
2019-02-12T09:57:28.468Z,99935.77
2019-02-12T10:00:36.230Z,99950.27
2019-02-12T10:03:44.521Z,99945.69
2019-02-12T10:06:46.043Z,99958.51
2019-02-12T10:09:54.952Z,99957.13
2019-02-12T10:12:49.794Z,99960.45
2019-02-12T10:15:47.986Z,99962.28
2019-02-12T10:18:41.794Z,99971.88
2019-02-12T10:21:36.887Z,99972.00
2019-02-12T10:24:43.594Z,99973.42
2019-02-12T10:28:03.581Z,99978.84
2019-02-12T10:31:10.258Z,99968.20
2019-02-12T10:33:40.922Z,99984.03
2019-02-12T10:36:11.343Z,99986.55
2019-02-12T10:38:41.897Z,99982.81
2019-02-12T10:41:12.286Z,99989.96
2019-02-12T10:43:42.669Z,99993.81
2019-02-12T10:46:13.098Z,99994.13
2019-02-12T10:48:43.441Z,99986.44
2019-02-12T10:51:13.840Z,99991.03
2019-02-12T10:53:44.222Z,99985.81
2019-02-12T10:56:17.163Z,99982.58
2019-02-12T10:58:47.700Z,99987.33
2019-02-12T11:01:18.748Z,99994.98
2019-02-12T11:03:49.648Z,99979.95
2019-02-12T11:06:21.357Z,99984.05
2019-02-12T11:08:52.110Z,99982.07
2019-02-12T11:11:23.430Z,99994.48
2019-02-12T11:13:54.102Z,100000.17
2019-02-12T11:16:25.351Z,100008.03
2019-02-12T11:18:56.211Z,100022.39
2019-02-12T11:21:27.430Z,100022.36
2019-02-12T11:23:58.742Z,100018.78
2019-02-12T11:26:30.577Z,100025.29
2019-02-12T11:29:00.979Z,100029.98
2019-02-12T11:31:31.569Z,100032.36
2019-02-12T11:34:03.242Z,100028.21
2019-02-12T11:36:33.775Z,100020.16
2019-02-12T11:39:05.404Z,100014.44
2019-02-12T11:41:36.221Z,100019.79
2019-02-12T11:44:09.171Z,100036.23
2019-02-12T11:46:40.082Z,100049.84
2019-02-12T11:49:10.567Z,100051.41
2019-02-12T11:51:41.280Z,100062.17
2019-02-12T11:54:11.789Z,100053.55
2019-02-12T11:56:42.483Z,100063.77
2019-02-12T11:59:12.870Z,100065.17
2019-02-12T12:01:44.014Z,100054.17
2019-02-12T12:04:14.383Z,100058.65
2019-02-12T12:06:44.958Z,100068.98
2019-02-12T12:09:15.156Z,100065.00
2019-02-12T12:11:45.639Z,100067.23
2019-02-12T12:14:15.929Z,100064.53
2019-02-12T12:16:46.218Z,100048.41
2019-02-12T12:19:16.647Z,100043.49
2019-02-12T12:21:46.957Z,100041.41
2019-02-12T12:24:17.379Z,100039.53
2019-02-12T12:26:47.586Z,100042.77
2019-02-12T12:29:17.853Z,100040.48
2019-02-12T12:31:48.078Z,100046.25
2019-02-12T12:34:18.475Z,100047.80
2019-02-12T12:36:48.717Z,100048.52
2019-02-12T12:39:19.103Z,100051.59
2019-02-12T12:41:49.407Z,100061.59
2019-02-12T12:44:19.703Z,100056.28
2019-02-12T12:46:50.094Z,100059.25
2019-02-12T12:49:20.573Z,100069.69
2019-02-12T12:51:50.939Z,100069.89
2019-02-12T12:54:21.443Z,100068.16
2019-02-12T12:56:51.684Z,100064.88
2019-02-12T12:59:24.919Z,100071.06
2019-02-12T13:01:55.189Z,100077.08
2019-02-12T13:04:25.646Z,100077.16
2019-02-12T13:06:55.986Z,100070.27
2019-02-12T13:09:26.209Z,100082.57
2019-02-12T13:11:56.532Z,100077.73
2019-02-12T13:14:28.347Z,100085.47
2019-02-12T13:17:01.430Z,100083.48
2019-02-12T13:19:34.077Z,100082.22
2019-02-12T13:22:06.654Z,100081.16
2019-02-12T13:24:39.222Z,100089.42
2019-02-12T13:27:11.689Z,100090.45
2019-02-12T13:29:44.111Z,100091.70
2019-02-12T13:32:16.998Z,100096.88
2019-02-12T13:34:47.497Z,100100.39
2019-02-12T13:37:17.804Z,100100.33
2019-02-12T13:39:49.131Z,100099.34
2019-02-12T13:42:19.416Z,100116.00
2019-02-12T13:44:49.634Z,100124.76
2019-02-12T13:47:19.934Z,100136.95
2019-02-12T13:49:50.232Z,100139.01
2019-02-12T13:52:20.470Z,100138.70
2019-02-12T13:54:50.743Z,100135.32
2019-02-12T13:57:20.957Z,100137.81
2019-02-12T13:59:51.261Z,100138.83
2019-02-12T14:02:21.578Z,100147.22
2019-02-12T14:04:51.850Z,100155.95
2019-02-12T14:07:22.279Z,100151.28
2019-02-12T14:09:52.529Z,100145.48
2019-02-12T14:12:23.303Z,100146.56
2019-02-12T14:14:53.639Z,100145.23
2019-02-12T14:17:23.871Z,100139.98
2019-02-12T14:19:54.269Z,100149.65
2019-02-12T14:22:24.515Z,100143.66
2019-02-12T14:24:54.823Z,100148.19
2019-02-12T14:27:25.210Z,100149.57
2019-02-12T14:29:55.478Z,100152.94
2019-02-12T14:32:27.027Z,100154.03
2019-02-12T14:34:58.680Z,100156.58
2019-02-12T14:37:28.967Z,100162.41
2019-02-12T14:39:59.405Z,100157.62
2019-02-12T14:42:29.591Z,100161.92
2019-02-12T14:45:00.870Z,100167.27
2019-02-12T14:47:31.181Z,100167.75
2019-02-12T14:50:02.225Z,100165.70
2019-02-12T14:52:32.688Z,100166.44
2019-02-12T14:55:03.017Z,100170.02
2019-02-12T14:57:33.315Z,100179.31
2019-02-12T15:00:03.736Z,100174.19
2019-02-12T15:02:33.993Z,100173.88
2019-02-12T15:05:05.169Z,100186.84
2019-02-12T15:07:36.162Z,100187.00
2019-02-12T15:10:09.648Z,100201.32
2019-02-12T15:12:40.479Z,100198.02
2019-02-12T15:15:10.901Z,100194.28
2019-02-12T15:17:41.187Z,100193.41
2019-02-12T15:20:11.450Z,100193.55
2019-02-12T15:22:41.798Z,100192.94
2019-02-12T15:25:12.388Z,100196.13
2019-02-12T15:27:43.447Z,100202.47
2019-02-12T15:30:14.748Z,100204.73
2019-02-12T15:32:45.121Z,100207.98
2019-02-12T15:35:15.388Z,100213.27
2019-02-12T15:37:45.586Z,100217.87
2019-02-12T15:40:18.286Z,100221.30
2019-02-12T15:42:50.642Z,100219.95
2019-02-12T15:45:21.899Z,100222.48
2019-02-12T15:47:52.346Z,100228.16
2019-02-12T15:50:25.715Z,100227.30
2019-02-12T15:52:58.774Z,100231.02
2019-02-12T15:55:30.691Z,100236.14
2019-02-12T15:58:04.279Z,100233.37
2019-02-12T16:00:36.733Z,100237.81
2019-02-12T16:03:10.073Z,100232.23
2019-02-12T16:05:41.621Z,100237.31
2019-02-12T16:08:12.943Z,100248.80
2019-02-12T16:10:44.064Z,100250.84
2019-02-12T16:13:15.814Z,100249.34
2019-02-12T16:15:47.210Z,100258.63
2019-02-12T16:18:21.346Z,100260.72
2019-02-12T16:20:51.602Z,100264.50
2019-02-12T16:23:21.827Z,100266.81
2019-02-12T16:25:59.374Z,100268.75
2019-02-12T16:28:24.124Z,100272.28
2019-02-12T16:30:54.455Z,100279.32
2019-02-12T16:33:24.637Z,100281.25
2019-02-12T16:35:54.862Z,100284.13
2019-02-12T16:38:25.139Z,100291.92
2019-02-12T16:40:55.411Z,100294.27
2019-02-12T16:43:25.828Z,100300.58
2019-02-12T16:46:05.373Z,100295.67
2019-02-12T16:48:36.223Z,100304.30
2019-02-12T16:51:06.509Z,100300.30
2019-02-12T16:53:36.863Z,100302.56
2019-02-12T16:56:08.572Z,100311.75
2019-02-12T16:58:39.134Z,100315.84
2019-02-12T17:01:09.371Z,100311.62
2019-02-12T17:03:39.664Z,100311.97
2019-02-12T17:06:10.774Z,100316.86
2019-02-12T17:08:41.052Z,100322.15
2019-02-12T17:11:11.342Z,100330.44
2019-02-12T17:13:42.545Z,100325.13
2019-02-12T17:16:12.899Z,100330.27
2019-02-12T17:18:43.146Z,100330.38
2019-02-12T17:21:13.383Z,100337.55
2019-02-12T17:23:43.881Z,100334.02
2019-02-12T17:26:16.459Z,100341.28
2019-02-12T17:28:46.090Z,100343.56
2019-02-12T17:31:16.347Z,100344.10
2019-02-12T17:33:46.538Z,100340.25
2019-02-12T17:36:16.798Z,100341.98
2019-02-12T17:38:47.097Z,100354.00
2019-02-12T17:41:17.286Z,100348.16
2019-02-12T17:43:47.595Z,100354.72
2019-02-12T17:46:17.805Z,100359.36
2019-02-12T17:48:48.101Z,100358.66
2019-02-12T17:51:18.394Z,100364.89
2019-02-12T17:53:49.574Z,100367.73
2019-02-12T17:56:24.891Z,100368.93
2019-02-12T17:58:51.820Z,100370.84
2019-02-12T18:01:22.109Z,100371.55
2019-02-12T18:03:52.444Z,100377.00
2019-02-12T18:06:22.700Z,100374.05
2019-02-12T18:08:52.984Z,100377.40
2019-02-12T18:11:23.326Z,100375.48
2019-02-12T18:13:53.829Z,100380.34
2019-02-12T18:16:24.561Z,100377.72
2019-02-12T18:18:54.877Z,100393.06
2019-02-12T18:21:25.114Z,100396.69
2019-02-12T18:23:55.485Z,100397.61
2019-02-12T18:26:33.174Z,100391.12
2019-02-12T18:28:57.927Z,100391.12
2019-02-12T18:31:28.211Z,100393.45
2019-02-12T18:33:58.485Z,100396.37
2019-02-12T18:36:28.725Z,100404.66
2019-02-12T18:38:59.269Z,100405.38
2019-02-12T18:41:29.464Z,100401.04
2019-02-12T18:43:59.785Z,100408.41
2019-02-12T18:46:30.032Z,100410.92
2019-02-12T18:49:00.245Z,100410.13
2019-02-12T18:51:30.452Z,100409.63
2019-02-12T18:54:00.882Z,100407.38
2019-02-12T18:56:31.100Z,100417.28
2019-02-12T18:59:01.436Z,100415.47
2019-02-12T19:01:31.749Z,100406.28
2019-02-12T19:04:02.149Z,100416.06
2019-02-12T19:06:32.568Z,100415.36
2019-02-12T19:09:02.997Z,100424.14
2019-02-12T19:11:33.259Z,100420.48
2019-02-12T19:14:03.922Z,100416.28
2019-02-12T19:16:34.359Z,100420.82
2019-02-12T19:19:04.714Z,100418.58
2019-02-12T19:21:35.101Z,100415.25
2019-02-12T19:24:05.611Z,100420.11
2019-02-12T19:26:35.899Z,100422.73
2019-02-12T19:29:06.115Z,100430.71
2019-02-12T19:31:37.986Z,100432.31
2019-02-12T19:34:08.234Z,100438.16
2019-02-12T19:36:39.099Z,100441.91
2019-02-12T19:39:09.351Z,100442.83
2019-02-12T19:41:39.556Z,100442.40
2019-02-12T19:44:09.826Z,100442.61
2019-02-12T19:46:40.154Z,100441.09
2019-02-12T19:49:10.455Z,100444.31
2019-02-12T19:51:40.933Z,100444.91
2019-02-12T19:54:11.380Z,100443.52
2019-02-12T19:56:41.678Z,100449.06
2019-02-12T19:59:11.929Z,100446.25
2019-02-12T20:01:42.211Z,100444.13
2019-02-12T20:04:12.406Z,100448.25
2019-02-12T20:06:42.849Z,100444.02
2019-02-12T20:09:22.905Z,100455.33
2019-02-12T20:11:53.232Z,100441.68
2019-02-12T20:14:23.620Z,100449.38
2019-02-12T20:16:53.847Z,100448.66
2019-02-12T20:19:24.092Z,100453.52
2019-02-12T20:21:54.275Z,100454.52
2019-02-12T20:24:24.624Z,100444.81
2019-02-12T20:26:54.944Z,100450.06
2019-02-12T20:29:25.160Z,100449.86
2019-02-12T20:31:56.395Z,100450.26
2019-02-12T20:34:27.826Z,100456.31
2019-02-12T20:36:59.069Z,100452.89
2019-02-12T20:39:29.525Z,100456.14
2019-02-12T20:41:59.827Z,100455.41
2019-02-12T20:44:30.084Z,100461.68
2019-02-12T20:47:00.306Z,100465.94
2019-02-12T20:49:30.603Z,100464.89
2019-02-12T20:52:00.803Z,100462.17
2019-02-12T20:54:34.087Z,100461.47
2019-02-12T20:57:04.388Z,100455.61
2019-02-12T20:59:35.578Z,100452.38
2019-02-12T21:02:05.874Z,100454.83
2019-02-12T21:04:36.157Z,100455.81
2019-02-12T21:07:06.457Z,100451.80
2019-02-12T21:09:36.675Z,100458.56
2019-02-12T21:12:06.879Z,100457.44
2019-02-12T21:14:37.283Z,100456.05
2019-02-12T21:17:07.543Z,100455.02
2019-02-12T21:19:37.886Z,100460.98
2019-02-12T21:22:08.052Z,100451.91
2019-02-12T21:24:38.356Z,100457.86
2019-02-12T21:27:08.703Z,100459.78
2019-02-12T21:29:38.965Z,100452.89
2019-02-12T21:32:09.203Z,100457.34
2019-02-12T21:34:39.536Z,100458.56
2019-02-12T21:37:09.754Z,100468.97
2019-02-12T21:39:39.983Z,100464.92
2019-02-12T21:42:10.243Z,100475.63
2019-02-12T21:44:40.476Z,100468.36
2019-02-12T21:47:10.857Z,100473.82
2019-02-12T21:49:41.129Z,100480.48
2019-02-12T21:52:11.356Z,100478.73
2019-02-12T21:54:41.592Z,100483.40
2019-02-12T21:57:11.799Z,100481.98
2019-02-12T21:59:42.138Z,100483.72
2019-02-12T22:02:12.350Z,100478.87
2019-02-12T22:04:42.754Z,100479.58
2019-02-12T22:07:13.107Z,100486.25
2019-02-12T22:09:43.469Z,100481.78
2019-02-12T22:12:13.712Z,100486.42
2019-02-12T22:14:44.238Z,100488.05
2019-02-12T22:17:14.468Z,100487.14
2019-02-12T22:19:44.756Z,100484.91
2019-02-12T22:22:15.253Z,100487.23
2019-02-12T22:24:45.448Z,100476.42
2019-02-12T22:27:15.690Z,100482.81
2019-02-12T22:29:45.955Z,100490.58
2019-02-12T22:32:16.240Z,100483.09
2019-02-12T22:34:46.415Z,100491.39
2019-02-12T22:37:16.712Z,100491.50
2019-02-12T22:39:47.150Z,100490.87
2019-02-12T22:42:17.414Z,100491.67
2019-02-12T22:44:48.120Z,100492.99
2019-02-12T22:47:18.313Z,100490.36
2019-02-12T22:49:48.551Z,100490.36
2019-02-12T22:52:18.753Z,100497.13
2019-02-12T22:54:49.192Z,100495.32
2019-02-12T22:57:19.435Z,100501.17
2019-02-12T22:59:49.618Z,100497.02
2019-02-12T23:02:19.879Z,100500.05
2019-02-12T23:04:50.879Z,100505.52
2019-02-12T23:07:21.186Z,100497.73
2019-02-12T23:09:51.413Z,100496.32
2019-02-12T23:12:22.912Z,100505.81
2019-02-12T23:14:53.543Z,100506.93
2019-02-12T23:17:23.736Z,100509.14
2019-02-12T23:19:53.965Z,100506.72
2019-02-12T23:22:24.183Z,100508.41
2019-02-12T23:24:54.379Z,100511.95
2019-02-12T23:27:24.761Z,100512.25
2019-02-12T23:29:55.000Z,100511.14
2019-02-12T23:32:25.290Z,100507.41
2019-02-12T23:34:57.353Z,100510.41
2019-02-12T23:37:27.893Z,100513.45
2019-02-12T23:39:58.133Z,100514.77
2019-02-12T23:42:28.317Z,100517.28
2019-02-12T23:44:58.609Z,100517.07
2019-02-12T23:47:28.931Z,100521.61
2019-02-12T23:49:59.191Z,100516.69
2019-02-12T23:52:29.422Z,100513.83
2019-02-12T23:54:59.654Z,100519.91
2019-02-12T23:57:30.951Z,100519.31
